EW8805 Weather Reports


time (UTC)temp
C
wind
direction
speed
KPH
gust
KPH
rain 1hr
cm
rain 24hr
cm
rain mn
cm
humidity
%
barometer
mb
20190425055517 8 226 17.7 33.8 0.00 2.01 0.15 89 1010.8
20190425055019 8 259 24.1 37.0 0.00 2.01 0.15 88 1010.8
20190425054527 8 252 20.9 30.6 0.00 2.01 0.15 88 1010.6
20190425054024 8 243 24.1 33.8 0.00 2.01 0.15 88 1010.5
20190425053516 8 246 19.3 33.8 0.00 2.01 0.15 88 1010.4
20190425053019 8 288 22.5 33.8 0.00 2.01 0.15 87 1010.4
20190425052530 8 243 25.7 33.8 0.00 2.01 0.15 88 1010.4
20190425052034 8 254 20.9 33.8 0.00 2.01 0.15 90 1010.2
20190425051520 8 235 17.7 25.7 0.00 2.01 0.15 93 1010.1
20190425051024 8 240 16.1 27.4 0.00 2.01 0.15 94 1010.1
20190425050531 8 249 19.3 27.4 0.00 2.01 0.15 96 1009.9
20190425050056 8 250 19.3 27.4 0.00 2.01 0.15 96 1010.0
20190425045517 8 252 17.7 27.4 0.00 2.01 0.15 96 1009.9
20190425045026 8 252 16.1 27.4 0.00 2.01 0.15 96 1009.9
20190425044531 8 243 14.5 32.2 0.10 2.01 0.15 96 1009.8
20190425044016 8 263 16.1 32.2 0.10 2.01 0.15 96 1009.8
20190425043529 8 251 22.5 30.6 0.10 2.01 0.15 96 1009.8
20190425043032 8 255 24.1 30.6 0.10 2.01 0.15 96 1009.8
20190425042520 8 243 16.1 30.6 0.10 2.01 0.15 96 1009.7
20190425042019 8 249 16.1 30.6 0.10 2.01 0.15 96 1009.7
20190425041525 8 240 19.3 32.2 0.10 2.01 0.15 96 1009.6
20190425041018 8 234 20.9 32.2 0.10 2.01 0.15 96 1009.6
20190425040531 8 243 22.5 29.0 0.10 2.01 0.15 96 1009.5
20190425040053 8 234 20.9 32.2 0.10 2.01 0.15 96 1009.6
20190425035518 8 214 24.1 32.2 0.10 2.01 0.15 96 1009.6
20190425035027 8 236 14.5 25.7 0.10 2.01 0.15 96 1009.5
20190425034518 8 249 17.7 29.0 0.10 1.91 0.15 96 1009.5
20190425034019 8 232 17.7 27.4 0.10 1.91 0.15 96 1009.6
20190425033534 8 246 16.1 20.9 0.10 1.91 0.15 96 1009.7
20190425033017 8 252 9.7 25.7 0.10 1.91 0.15 96 1009.5
20190425032526 8 252 12.9 25.7 0.10 1.91 0.15 96 1009.5
20190425032028 8 252 14.5 22.5 0.10 1.91 0.15 96 1009.4
20190425031536 8 222 12.9 22.5 0.10 1.91 0.15 96 1009.3
20190425031023 8 236 14.5 22.5 0.10 1.91 0.15 96 1009.4
20190425030526 8 261 16.1 22.5 0.10 1.91 0.15 96 1009.5
20190425030049 8 249 16.1 22.5 0.10 1.91 0.15 96 1009.5
20190425025535 8 245 16.1 22.5 0.10 1.91 0.15 96 1009.3
20190425025020 8 250 16.1 24.1 0.10 1.91 0.15 96 1009.3
20190425024525 8 210 14.5 24.1 0.10 1.80 0.13 96 1009.3
20190425024030 8 245 12.9 25.7 0.10 1.80 0.13 96 1009.3
20190425023522 8 249 16.1 27.4 0.10 1.80 0.13 96 1009.3
20190425023020 8 256 14.5 29.0 0.20 1.80 0.13 96 1009.2
20190425022533 8 259 19.3 29.0 0.20 1.80 0.13 96 1009.1
20190425022018 8 252 19.3 32.2 0.20 1.80 0.13 96 1009.0
20190425021529 8 238 19.3 32.2 0.20 1.80 0.13 96 1009.1
20190425021025 8 263 20.9 30.6 0.30 1.80 0.13 96 1009.1
20190425020534 8 259 22.5 33.8 0.51 1.80 0.13 96 1009.0
20190425020054 8 240 20.9 35.4 0.61 1.80 0.13 96 1009.1
20190425015518 8 259 19.3 40.2 0.61 1.80 0.13 95 1009.0
20190425015022 8 266 25.7 37.0 0.61 1.80 0.13 95 1009.0
20190425014531 8 260 24.1 40.2 0.51 1.70 0.10 95 1009.0
20190425014019 8 255 27.4 43.5 0.51 1.70 0.10 95 1009.2
20190425013525 8 273 32.2 46.7 0.51 1.70 0.10 95 1009.2
20190425013025 8 271 32.2 45.1 0.41 1.60 0.08 95 1009.2
20190425012534 8 278 30.6 48.3 0.41 1.60 0.08 95 1009.0
20190425012034 9 264 37.0 49.9 0.41 1.60 0.08 94 1009.0
20190425011524 9 285 32.2 49.9 0.41 1.60 0.08 93 1009.1
20190425011030 10 270 29.0 54.7 0.30 1.50 0.05 91 1009.0
20190425010518 12 263 30.6 40.2 0.10 1.30 0.03 89 1008.9
20190425010055 12 197 16.1 38.6 0.00 1.19 0.00 88 1008.1
20190425005517 12 257 19.3 38.6 0.00 1.19 0.00 88 1008.1
20190425005021 12 246 19.3 38.6 0.00 1.19 0.00 89 1008.1
20190425004525 12 228 20.9 32.2 0.00 1.19 0.00 89 1008.1
20190425004030 12 250 12.9 30.6 0.00 1.19 0.00 89 1008.1
20190425003517 12 240 16.1 30.6 0.00 1.19 0.00 89 1008.1
20190425003023 12 229 14.5 29.0 0.00 1.19 0.00 89 1008.2
20190425002531 12 211 14.5 29.0 0.00 1.19 0.00 89 1008.4
20190425002034 12 172 16.1 25.7 0.00 1.19 0.00 89 1008.3
20190425001526 12 228 14.5 24.1 0.00 1.19 0.00 89 1008.3
20190425001029 12 238 14.5 20.9 0.00 1.19 0.00 90 1008.3
20190425000518 12 205 11.3 20.9 0.00 1.19 0.00 90 1008.4
20190425000059 12 232 12.9 24.1 0.00 1.19 0.00 90 1008.3
20190424235524 12 217 12.9 24.1 0.00 1.19 0.00 89 1008.4
20190424235024 12 219 14.5 25.7 0.00 1.19 0.00 89 1008.4
20190424234533 12 244 12.9 32.2 0.00 1.19 0.00 89 1008.4
20190424234032 12 221 19.3 32.2 0.00 1.19 0.00 89 1008.5
20190424233528 12 214 14.5 30.6 0.00 1.19 0.00 89 1008.3
20190424233030 12 240 12.9 35.4 0.00 1.19 0.00 89 1008.3
20190424232522 12 225 17.7 35.4 0.00 1.19 0.00 89 1008.4
20190424232020 12 240 14.5 29.0 0.00 1.19 0.00 90 1008.4
20190424231523 12 197 14.5 27.4 0.00 1.19 0.00 90 1008.4
20190424231028 11 224 12.9 27.4 0.00 1.19 0.00 90 1008.3
20190424230517 11 229 12.9 27.4 0.00 1.19 0.00 91 1008.4
20190424230052 11 298 14.5 25.7 0.00 1.19 0.00 91 1008.3
20190424225517 11 211 14.5 25.7 0.00 1.19 0.00 92 1008.3
20190424225034 11 183 16.1 25.7 0.00 1.19 0.00 92 1008.3
20190424224520 11 211 11.3 22.5 0.00 1.19 0.00 92 1008.3
20190424224025 11 213 14.5 25.7 0.00 1.19 0.00 92 1008.3
20190424223535 11 174 12.9 22.5 0.00 1.19 0.00 92 1008.3
20190424223019 11 123 12.9 25.7 0.00 1.19 0.00 92 1008.5
20190424222526 11 243 12.9 25.7 0.10 1.19 0.00 92 1008.5
20190424222034 11 219 14.5 25.7 0.10 1.19 0.00 93 1008.5
20190424221523 11 212 14.5 27.4 0.10 1.19 0.00 93 1008.4
20190424221023 11 203 12.9 27.4 0.10 1.19 0.00 93 1008.5
20190424220533 11 259 14.5 27.4 0.10 1.19 0.00 92 1008.6
20190424220053 11 177 12.9 30.6 0.10 1.19 0.00 92 1008.6
20190424215530 11 186 14.5 27.4 0.20 1.19 0.23 92 1008.6
20190424215034 11 210 16.1 32.2 0.20 1.19 0.23 92 1008.5
20190424214522 11 233 19.3 32.2 0.30 1.19 0.23 92 1008.7
20190424214030 11 235 17.7 30.6 0.30 1.19 0.23 92 1008.7
20190424213518 11 186 16.1 30.6 0.30 1.19 0.23 93 1008.6
20190424213026 11 288 16.1 29.0 0.30 1.19 0.23 93 1008.6
20190424212534 11 236 14.5 25.7 0.20 1.09 0.23 93 1008.6
20190424212021 11 194 14.5 30.6 0.30 1.09 0.23 93 1008.5
20190424211527 11 155 16.1 32.2 0.41 1.09 0.23 93 1008.6
20190424211032 11 243 16.1 32.2 0.41 1.09 0.23 93 1008.6
20190424210524 11 170 14.5 33.8 0.51 1.09 0.23 92 1008.6
20190424210039 11 159 19.3 40.2 0.61 1.09 0.23 92 1008.7
20190424205529 11 240 17.7 37.0 0.61 0.99 0.20 92 1008.8
20190424205034 11 225 16.1 29.0 0.79 0.99 0.20 92 1008.9
20190424204529 11 231 16.1 30.6 0.79 0.89 0.18 92 1008.8
20190424204035 11 226 14.5 29.0 0.89 0.89 0.18 92 1008.9
20190424203531 11 231 12.9 29.0 0.89 0.89 0.18 92 1008.7
20190424203033 11 229 17.7 33.8 0.89 0.89 0.18 92 1008.8
20190424202524 11 211 16.1 33.8 0.89 0.89 0.18 92 1008.7
20190424202024 11 211 19.3 33.8 0.79 0.79 0.15 92 1008.7
20190424201515 11 217 19.3 33.8 0.71 0.71 0.15 92 1008.8
20190424201021 11 210 19.3 40.2 0.71 0.71 0.15 92 1008.7
20190424200530 11 212 20.9 40.2 0.61 0.61 0.13 91 1008.8
20190424200050 11 215 19.3 32.2 0.51 0.51 0.10 91 1008.7
20190424195517 11 238 19.3 38.6 0.41 0.41 0.08 90 1008.6
20190424195026 12 224 22.5 38.6 0.20 0.20 0.05 88 1008.6
20190424194534 12 240 22.5 45.1 0.10 0.10 0.03 86 1008.5
20190424194020 12 218 30.6 45.1 0.00 0.00 0.00 83 1008.4
20190424193528 12 211 30.6 49.9 0.00 0.00 0.00 81 1008.2
20190424193032 13 190 29.0 49.9 0.00 0.00 0.00 79 1008.1
20190424192523 13 239 22.5 49.9 0.00 0.00 0.00 79 1007.9
20190424192031 13 219 27.4 51.5 0.00 0.00 0.00 78 1007.8
20190424191522 13 214 30.6 51.5 0.00 0.00 0.00 78 1007.8
20190424191034 13 215 25.7 48.3 0.00 0.00 0.00 78 1007.7
20190424190523 13 218 22.5 38.6 0.00 0.00 0.00 78 1007.6
20190424190047 13 257 17.7 45.1 0.00 0.00 0.00 78 1007.6
20190424185530 13 236 25.7 45.1 0.00 0.00 0.00 77 1007.6
20190424185018 13 207 20.9 41.8 0.00 0.00 0.00 77 1007.5
20190424184526 13 246 22.5 51.5 0.00 0.00 0.00 77 1007.6
20190424184027 13 252 22.5 51.5 0.00 0.00 0.00 77 1007.5
20190424183519 13 214 25.7 45.1 0.00 0.00 0.00 76 1007.3
20190424183020 13 229 24.1 41.8 0.00 0.00 0.00 76 1007.2
20190424182531 13 167 25.7 43.5 0.00 0.00 0.00 75 1007.4
20190424182032 13 193 25.7 43.5 0.00 0.00 0.00 75 1007.3
20190424181525 13 233 17.7 41.8 0.00 0.00 0.00 75 1007.2
20190424181033 13 229 24.1 41.8 0.00 0.00 0.00 75 1007.3
20190424180530 13 200 19.3 46.7 0.00 0.00 0.00 75 1007.2
20190424180055 13 206 20.9 49.9 0.00 0.00 0.00 75 1007.3
20190424175517 13 194 25.7 43.5 0.00 0.30 0.00 75 1007.3
20190424175020 13 243 24.1 43.5 0.00 0.30 0.00 74 1007.4
20190424174535 13 229 25.7 45.1 0.00 0.30 0.00 74 1007.3
20190424174020 13 257 17.7 41.8 0.00 0.30 0.00 74 1007.4
20190424173533 13 194 22.5 43.5 0.00 0.30 0.00 74 1007.4
20190424173034 13 225 19.3 43.5 0.00 0.30 0.00 74 1007.4
20190424172525 13 215 22.5 37.0 0.00 0.30 0.00 74 1007.3
20190424172029 13 201 20.9 41.8 0.00 0.30 0.00 74 1007.3
20190424171535 13 222 22.5 43.5 0.00 0.30 0.00 74 1007.4
20190424171022 13 221 22.5 43.5 0.00 0.30 0.00 74 1007.2
20190424170535 13 174 19.3 48.3 0.00 0.30 0.00 74 1007.1
20190424170043 13 239 25.7 48.3 0.00 0.30 0.00 74 1007.0
20190424165529 13 252 22.5 41.8 0.00 0.30 0.00 74 1007.0
20190424165025 13 264 19.3 38.6 0.00 0.30 0.00 74 1007.0
20190424164525 13 208 24.1 49.9 0.00 0.30 0.00 73 1007.0
20190424164034 13 205 27.4 51.5 0.00 0.30 0.00 73 1007.0
20190424163559 13 195 24.1 48.3 0.00 0.30 0.00 74 1007.0
20190424163027 13 224 20.9 49.9 0.00 0.30 0.00 74 1006.8
20190424162535 13 217 29.0 49.9 0.00 0.30 0.00 74 1006.9
20190424162101 13 194 20.9 37.0 0.00 0.30 0.00 75 1006.8
20190424161531 13 228 19.3 35.4 0.00 0.30 0.00 76 1006.9
20190424161033 13 139 20.9 37.0 0.00 0.30 0.00 77 1006.9
20190424160605 13 224 19.3 37.0 0.00 0.30 0.00 77 1006.8
20190424160113 12 238 17.7 33.8 0.00 0.30 0.00 78 1006.7
20190424155555 12 190 19.3 35.4 0.00 0.30 0.00 78 1006.8
20190424155059 13 143 19.3 49.9 0.00 0.30 0.00 76 1006.8
20190424154525 13 219 20.9 49.9 0.00 0.30 0.00 73 1006.6
20190424154031 14 184 19.3 40.2 0.00 0.30 0.00 73 1006.6
20190424153517 13 214 16.1 41.8 0.00 0.30 0.00 72 1006.5
20190424153019 13 211 25.7 43.5 0.00 0.30 0.00 72 1006.6
20190424152523 13 214 17.7 49.9 0.00 0.30 0.00 72 1006.6
20190424152027 13 207 25.7 51.5 0.00 0.30 0.00 72 1006.7
20190424151527 13 240 22.5 53.1 0.00 0.30 0.00 72 1006.6
20190424151056 13 243 29.0 53.1 0.00 0.30 0.00 71 1006.8
20190424150559 14 207 20.9 46.7 0.00 0.30 0.00 71 1006.7
20190424150050 14 187 27.4 48.3 0.00 0.30 0.00 70 1006.8
20190424145527 14 226 19.3 48.3 0.00 0.41 0.00 71 1006.9
20190424145017 14 234 27.4 51.5 0.00 0.41 0.00 70 1006.9
20190424144533 14 163 27.4 51.5 0.00 0.41 0.00 71 1006.9
20190424144033 13 188 22.5 46.7 0.00 0.41 0.00 71 1007.0
20190424143534 13 234 25.7 46.7 0.00 0.41 0.00 71 1007.1
20190424143018 13 195 24.1 46.7 0.00 0.41 0.00 71 1007.0
20190424142533 13 255 22.5 46.7 0.00 0.41 0.00 71 1007.0
20190424142053 13 186 19.3 49.9 0.00 0.41 0.00 70 1007.1
20190424141523 14 257 30.6 54.7 0.00 0.41 0.00 70 1007.1
20190424141021 13 196 29.0 54.7 0.00 0.41 0.00 70 1007.1
20190424140543 13 229 32.2 48.3 0.00 0.41 0.00 70 1007.2
20190424140049 13 193 17.7 46.7 0.00 0.41 0.00 71 1007.3
20190424135529 13 228 29.0 46.7 0.00 0.41 0.00 70 1007.3
20190424135031 13 160 20.9 40.2 0.00 0.41 0.00 72 1007.4
20190424134525 13 182 25.7 40.2 0.00 0.41 0.00 71 1007.4
20190424134102 13 132 22.5 37.0 0.00 0.41 0.00 71 1007.4
20190424133552 13 153 17.7 46.7 0.00 0.41 0.00 71 1007.6
20190424133045 13 199 22.5 46.7 0.00 0.41 0.00 71 1007.4
20190424132529 13 187 20.9 43.5 0.00 0.41 0.00 70 1007.5
20190424132031 13 207 24.1 45.1 0.00 0.41 0.00 70 1007.6
20190424131530 13 211 24.1 56.3 0.00 0.41 0.00 70 1007.6
20190424131027 13 221 25.7 56.3 0.00 0.41 0.00 70 1007.5
20190424130533 13 231 24.1 49.9 0.00 0.41 0.00 71 1007.4
20190424130050 13 214 25.7 45.1 0.00 0.41 0.00 72 1007.5
20190424125531 13 188 25.7 41.8 0.00 0.41 0.00 72 1007.6
20190424125035 13 134 24.1 46.7 0.00 0.41 0.00 73 1007.6
20190424124523 13 207 24.1 49.9 0.00 0.41 0.00 72 1007.6
20190424124025 13 200 27.4 61.2 0.00 0.41 0.00 72 1007.5
20190424123532 12 215 32.2 61.2 0.00 0.41 0.00 73 1007.7
20190424123016 12 229 27.4 49.9 0.00 0.41 0.00 73 1007.6
20190424122525 12 127 19.3 40.2 0.00 0.41 0.00 75 1007.6
20190424122022 12 225 20.9 40.2 0.00 0.41 0.00 74 1007.6
20190424121533 12 255 19.3 40.2 0.00 0.41 0.00 75 1007.6
20190424121021 12 197 19.3 40.2 0.00 0.41 0.00 75 1007.7
20190424120533 12 153 20.9 48.3 0.00 0.41 0.00 75 1007.7
20190424120053 12 235 24.1 48.3 0.00 0.41 0.00 74 1007.7
20190424115524 12 220 27.4 43.5 0.00 0.41 0.00 74 1007.8
20190424115034 12 229 27.4 38.6 0.00 0.41 0.00 75 1007.8
20190424114518 11 163 20.9 35.4 0.00 0.41 0.00 75 1007.8
20190424114022 11 174 14.5 32.2 0.00 0.41 0.00 76 1007.9
20190424113530 11 141 14.5 33.8 0.00 0.41 0.00 76 1007.9
20190424113030 11 184 22.5 38.6 0.00 0.41 0.00 75 1007.9
20190424112521 11 240 14.5 38.6 0.00 0.41 0.00 75 1007.9
20190424112025 11 264 12.9 29.0 0.00 0.41 0.00 76 1007.9
20190424111517 11 77 16.1 37.0 0.00 0.41 0.00 76 1008.0
20190424111019 11 218 17.7 37.0 0.00 0.41 0.00 76 1007.9
20190424110529 11 203 17.7 37.0 0.00 0.41 0.00 76 1007.8
20190424110051 11 215 14.5 43.5 0.00 0.41 0.00 76 1007.8
20190424105518 11 190 24.1 45.1 0.00 0.41 0.00 75 1007.8
20190424105021 11 200 20.9 48.3 0.00 0.41 0.00 74 1007.7
20190424104531 11 243 27.4 51.5 0.00 0.41 0.00 73 1007.6
20190424104034 11 276 25.7 51.5 0.00 0.41 0.00 74 1007.6
20190424103518 11 157 24.1 49.9 0.00 0.41 0.00 74 1007.7
20190424103026 11 211 25.7 49.9 0.00 0.41 0.00 74 1007.7
20190424102535 11 214 20.9 48.3 0.00 0.41 0.00 74 1007.8
20190424102015 11 249 20.9 46.7 0.00 0.41 0.00 74 1007.7
20190424101518 11 240 27.4 45.1 0.00 0.41 0.00 73 1007.7
20190424101022 11 235 19.3 37.0 0.00 0.41 0.00 73 1007.6
20190424100525 11 191 22.5 48.3 0.00 0.41 0.00 73 1007.7
20190424100043 11 197 29.0 54.7 0.00 0.41 0.00 73 1007.7
20190424095529 11 194 27.4 54.7 0.00 0.41 0.00 73 1007.5
20190424095035 11 201 19.3 38.6 0.00 0.41 0.00 74 1007.5
20190424094523 11 214 19.3 43.5 0.00 0.41 0.00 73 1007.6
20190424094026 11 243 20.9 43.5 0.00 0.41 0.00 74 1007.6
20190424093534 10 246 19.3 48.3 0.00 0.41 0.00 74 1007.5
20190424093033 10 259 19.3 48.3 0.00 0.41 0.00 74 1007.5
20190424092527 10 225 25.7 40.2 0.00 0.41 0.00 74 1007.5
20190424092017 10 198 22.5 40.2 0.00 0.41 0.00 74 1007.4
20190424091530 10 203 22.5 37.0 0.00 0.41 0.00 74 1007.6
20190424091029 10 168 17.7 48.3 0.00 0.41 0.00 75 1007.2
20190424090517 10 252 24.1 48.3 0.00 0.41 0.00 75 1007.2
20190424090054 10 305 27.4 41.8 0.00 0.41 0.00 74 1007.1
20190424085530 10 217 17.7 38.6 0.00 0.51 0.00 74 1006.9
20190424085031 10 160 19.3 35.4 0.00 0.51 0.00 75 1006.9
20190424084522 10 226 20.9 41.8 0.00 0.51 0.00 75 1006.9
20190424084027 10 260 20.9 41.8 0.00 0.51 0.00 75 1007.0
20190424083532 10 200 16.1 37.0 0.00 0.51 0.00 75 1007.0
20190424083019 10 240 22.5 38.6 0.00 0.51 0.00 75 1007.1
20190424082528 10 217 20.9 38.6 0.00 0.51 0.00 74 1007.0
20190424082029 10 228 19.3 32.2 0.00 0.51 0.00 75 1006.9
20190424081523 9 251 19.3 37.0 0.00 0.51 0.00 74 1006.9
20190424081027 9 287 17.7 38.6 0.00 0.51 0.00 75 1006.9
20190424080533 9 215 19.3 43.5 0.00 0.51 0.00 75 1006.9
20190424080048 9 225 19.3 43.5 0.00 0.51 0.00 75 1007.0
20190424075535 9 271 14.5 33.8 0.00 1.19 0.00 76 1007.0
20190424075020 8 205 14.5 30.6 0.00 1.19 0.00 76 1007.1
20190424074528 8 167 16.1 30.6 0.00 1.19 0.00 75 1007.1
20190424074037 8 224 16.1 33.8 0.00 1.19 0.00 76 1007.1
20190424073528 8 203 24.1 33.8 0.00 1.19 0.00 76 1007.1
20190424073024 8 250 14.5 24.1 0.00 1.19 0.00 77 1007.1
20190424072534 8 226 12.9 24.1 0.00 1.19 0.00 78 1007.0
20190424072016 8 253 12.9 24.1 0.00 1.19 0.00 78 1006.9
20190424071523 8 176 9.7 24.1 0.00 1.19 0.00 79 1006.9
20190424071020 8 187 9.7 24.1 0.00 1.19 0.00 80 1006.7
20190424070529 7 159 8.0 22.5 0.00 1.19 0.00 81 1006.9
20190424070049 7 197 8.0 22.5 0.00 1.19 0.00 82 1006.6
20190424065521 7 242 12.9 24.1 0.00 1.60 0.00 83 1006.6
20190424065025 6 153 11.3 20.9 0.00 1.60 0.00 83 1006.7
20190424064533 6 211 11.3 24.1 0.00 1.60 0.00 83 1006.6
20190424064019 6 194 11.3 24.1 0.00 1.60 0.00 84 1006.6
20190424063524 6 193 6.4 16.1 0.00 1.60 0.00 83 1006.6
20190424063027 6 200 8.0 17.7 0.00 1.60 0.00 84 1006.7
20190424062520 6 156 9.7 17.7 0.00 1.60 0.00 84 1006.6
20190424062023 6 114 8.0 16.1 0.00 1.60 0.00 84 1006.6
20190424061535 6 142 6.4 16.1 0.00 1.60 0.00 84 1006.8
20190424061111 6 228 3.2 12.9 0.00 1.60 0.00 85 1006.9
20190424060529 5 151 4.8 12.9 0.00 1.60 0.00 86 1007.1
20190424060047 5 134 4.8 14.5 0.00 1.60 0.00 86 1006.9